createdAt,value
2018-03-24T01:43:10.754Z,1002.01
2018-03-24T01:43:11.270Z,1002.02
2018-03-24T01:43:11.869Z,1002.00
2018-03-24T01:43:12.469Z,1002.03
2018-03-24T01:43:13.073Z,1002.01
2018-03-24T01:43:13.671Z,1002.00
2018-03-24T01:43:14.271Z,1002.04
2018-03-24T01:44:08.802Z,1002.03
2018-03-24T01:44:09.374Z,1002.03
2018-03-24T01:44:09.974Z,1002.01
2018-03-24T01:44:10.572Z,1002.04
2018-03-24T01:44:11.172Z,1002.04
2018-03-24T01:44:11.772Z,1002.05
2018-03-24T01:44:12.371Z,1002.04
2018-03-24T01:44:12.980Z,1002.06
2018-03-24T01:45:07.487Z,1002.03
2018-03-24T01:45:08.048Z,1002.00
2018-03-24T01:45:08.648Z,1002.03
2018-03-24T01:45:09.257Z,1002.05
2018-03-24T01:45:09.848Z,1002.02
2018-03-24T01:45:10.448Z,1002.05
2018-03-24T01:45:11.047Z,1002.01
2018-03-24T01:45:11.649Z,1002.01
2018-03-24T01:46:05.131Z,1002.00
2018-03-24T01:46:05.709Z,1002.01
2018-03-24T01:46:06.303Z,1002.05
2018-03-24T01:46:06.902Z,1002.02
2018-03-24T01:46:07.501Z,1002.03
2018-03-24T01:46:08.102Z,1002.03
2018-03-24T01:46:08.700Z,1002.03
2018-03-24T01:46:09.301Z,1002.02
2018-03-24T01:47:02.786Z,1002.02
2018-03-24T01:47:03.353Z,1002.07
2018-03-24T01:47:03.953Z,1002.03
2018-03-24T01:47:04.553Z,1002.02
2018-03-24T01:47:05.153Z,1002.05
2018-03-24T01:47:05.751Z,1002.06
2018-03-24T01:47:06.353Z,1002.03
2018-03-24T01:47:06.954Z,1002.07
2018-03-24T01:48:01.461Z,1002.03
2018-03-24T01:48:02.029Z,1001.98
2018-03-24T01:48:02.629Z,1001.99
2018-03-24T01:48:03.229Z,1002.01
2018-03-24T01:48:03.827Z,1002.00
2018-03-24T01:48:04.427Z,1002.05
2018-03-24T01:48:05.028Z,1002.07
2018-03-24T01:48:05.630Z,1002.04
2018-03-24T01:49:00.135Z,1002.04
2018-03-24T01:49:00.706Z,1002.00
2018-03-24T01:49:01.306Z,1002.02
2018-03-24T01:49:01.904Z,1002.04
2018-03-24T01:49:02.504Z,1002.04
2018-03-24T01:49:03.104Z,1002.03
2018-03-24T01:49:03.704Z,1002.03
2018-03-24T01:49:04.304Z,1002.00
2018-03-24T01:49:58.811Z,1002.05
2018-03-24T01:49:59.381Z,1002.04
2018-03-24T01:49:59.980Z,1002.04
2018-03-24T01:50:00.580Z,1002.04
2018-03-24T01:50:01.180Z,1002.08
2018-03-24T01:50:01.789Z,1002.05
2018-03-24T01:50:02.387Z,1002.01
2018-03-24T01:50:02.977Z,1002.01
2018-03-24T01:50:57.487Z,1002.03
2018-03-24T01:50:58.057Z,1002.05
2018-03-24T01:50:58.656Z,1002.07
2018-03-24T01:50:59.256Z,1002.06
2018-03-24T01:50:59.857Z,1002.04
2018-03-24T01:51:00.456Z,1002.06
2018-03-24T01:51:01.056Z,1002.03
2018-03-24T01:51:01.655Z,1002.07
2018-03-24T01:51:56.164Z,1002.04
2018-03-24T01:51:56.732Z,1002.06
2018-03-24T01:51:57.335Z,1002.04
2018-03-24T01:51:57.932Z,1002.04
2018-03-24T01:51:58.531Z,1002.03
2018-03-24T01:51:59.131Z,1002.03
2018-03-24T01:51:59.731Z,1002.09
2018-03-24T01:52:00.331Z,1002.04
2018-03-24T01:52:54.839Z,1002.02
2018-03-24T01:52:55.408Z,1002.02
2018-03-24T01:52:56.008Z,1001.99
2018-03-24T01:52:56.608Z,1002.01
2018-03-24T01:52:57.207Z,1002.02
2018-03-24T01:52:57.808Z,1002.00
2018-03-24T01:52:58.407Z,1001.99
2018-03-24T01:52:59.007Z,1002.02
2018-03-24T01:53:52.495Z,1002.02
2018-03-24T01:53:53.100Z,1002.03
2018-03-24T01:53:53.663Z,1002.01
2018-03-24T01:53:54.265Z,1002.06
2018-03-24T01:53:54.862Z,1002.03
2018-03-24T01:53:55.460Z,1002.02
2018-03-24T01:53:56.060Z,1002.04
2018-03-24T01:53:56.660Z,1002.04
2018-03-24T01:54:50.144Z,1002.00
2018-03-24T01:54:50.713Z,1001.99
2018-03-24T01:54:51.312Z,1002.02
2018-03-24T01:54:51.913Z,1002.01
2018-03-24T01:54:52.512Z,1002.02
2018-03-24T01:54:53.114Z,1001.98
2018-03-24T01:54:53.711Z,1002.02
2018-03-24T01:54:54.312Z,1002.00
2018-03-24T01:55:47.795Z,1002.04
2018-03-24T01:55:48.370Z,1002.03
2018-03-24T01:55:48.965Z,1002.01
2018-03-24T01:55:49.566Z,1002.00
2018-03-24T01:55:50.165Z,1002.01
2018-03-24T01:55:50.772Z,1002.05
2018-03-24T01:55:51.364Z,1002.00
2018-03-24T01:55:51.964Z,1002.03
2018-03-24T01:56:45.447Z,1002.00
2018-03-24T01:56:46.017Z,1002.00
2018-03-24T01:56:46.630Z,1002.02
2018-03-24T01:56:47.216Z,1002.01
2018-03-24T01:56:47.815Z,1001.99
2018-03-24T01:56:48.415Z,1002.02
2018-03-24T01:56:49.014Z,1002.02
2018-03-24T01:56:49.615Z,1002.03
2018-03-24T01:57:43.101Z,1002.05
2018-03-24T01:57:43.668Z,1002.01
2018-03-24T01:57:44.269Z,1001.98
2018-03-24T01:57:44.868Z,1002.01
2018-03-24T01:57:45.467Z,1002.00
2018-03-24T01:57:46.072Z,1002.02
2018-03-24T01:57:46.671Z,1002.01
2018-03-24T01:57:47.267Z,1002.01
2018-03-24T01:58:40.752Z,1002.00
2018-03-24T01:58:41.318Z,1002.01
2018-03-24T01:58:41.919Z,1002.00
2018-03-24T01:58:42.519Z,1002.01
2018-03-24T01:58:43.121Z,1001.99
2018-03-24T01:58:43.722Z,1002.03
2018-03-24T01:58:44.322Z,1002.03
2018-03-24T01:58:44.919Z,1002.03
2018-03-24T01:59:38.404Z,1001.99
2018-03-24T01:59:38.974Z,1002.02
2018-03-24T01:59:39.572Z,1002.01
2018-03-24T01:59:40.181Z,1002.02
2018-03-24T01:59:40.771Z,1002.05
2018-03-24T01:59:41.370Z,1002.01
2018-03-24T01:59:41.973Z,1002.00
2018-03-24T01:59:42.570Z,1002.02
2018-03-24T02:00:36.040Z,1002.00
2018-03-24T02:00:36.609Z,1002.01
2018-03-24T02:00:37.209Z,1002.01
2018-03-24T02:00:37.819Z,1002.01
2018-03-24T02:00:38.408Z,1002.05
2018-03-24T02:00:39.007Z,1002.02
2018-03-24T02:00:39.608Z,1002.02
2018-03-24T02:00:40.209Z,1002.04
2018-03-24T02:01:34.751Z,1002.00
2018-03-24T02:01:35.283Z,1001.99
2018-03-24T02:01:35.883Z,1001.98
2018-03-24T02:01:36.483Z,1002.00
2018-03-24T02:01:37.086Z,1001.97
2018-03-24T02:01:37.687Z,1001.98
2018-03-24T02:01:38.283Z,1002.00
2018-03-24T02:01:38.882Z,1002.02
2018-03-24T02:02:32.370Z,1001.99
2018-03-24T02:02:32.937Z,1002.00
2018-03-24T02:02:33.536Z,1002.00
2018-03-24T02:02:34.140Z,1002.00
2018-03-24T02:02:34.736Z,1001.99
2018-03-24T02:02:35.338Z,1002.01
2018-03-24T02:02:35.934Z,1001.98
2018-03-24T02:02:36.537Z,1001.98
2018-03-24T02:03:31.061Z,1001.97
2018-03-24T02:03:31.611Z,1001.97
2018-03-24T02:03:32.211Z,1001.95
2018-03-24T02:03:32.811Z,1001.97
2018-03-24T02:03:33.410Z,1001.97
2018-03-24T02:03:34.011Z,1001.92
2018-03-24T02:03:34.612Z,1001.95
2018-03-24T02:03:35.210Z,1001.96
2018-03-24T02:04:29.715Z,1001.99
2018-03-24T02:04:30.286Z,1001.98
2018-03-24T02:04:30.900Z,1001.98
2018-03-24T02:04:31.485Z,1001.98
2018-03-24T02:04:32.085Z,1002.00
2018-03-24T02:04:32.686Z,1001.97
2018-03-24T02:04:33.285Z,1001.99
2018-03-24T02:04:33.885Z,1001.93
2018-03-24T02:05:28.392Z,1001.99
2018-03-24T02:05:28.963Z,1002.00
2018-03-24T02:05:29.562Z,1001.99
2018-03-24T02:05:30.162Z,1001.98
2018-03-24T02:05:30.762Z,1002.00
2018-03-24T02:05:31.365Z,1001.99
2018-03-24T02:05:31.969Z,1001.99
2018-03-24T02:05:32.561Z,1002.00
2018-03-24T02:06:27.066Z,1001.92
2018-03-24T02:06:27.639Z,1001.97
2018-03-24T02:06:28.239Z,1001.97
2018-03-24T02:06:28.838Z,1002.00
2018-03-24T02:06:29.442Z,1001.97
2018-03-24T02:06:30.036Z,1001.94
2018-03-24T02:06:30.637Z,1001.96
2018-03-24T02:06:31.237Z,1002.00
2018-03-24T02:07:24.723Z,1001.98
2018-03-24T02:07:25.312Z,1002.01
2018-03-24T02:07:25.890Z,1001.98
2018-03-24T02:07:26.491Z,1002.03
2018-03-24T02:07:27.090Z,1002.00
2018-03-24T02:07:27.692Z,1002.00
2018-03-24T02:07:28.289Z,1002.02
2018-03-24T02:07:28.889Z,1002.02
2018-03-24T02:08:22.371Z,1001.97
2018-03-24T02:08:22.943Z,1002.01
2018-03-24T02:08:23.543Z,1001.95
2018-03-24T02:08:24.142Z,1001.96
2018-03-24T02:08:24.741Z,1001.99
2018-03-24T02:08:25.346Z,1001.99
2018-03-24T02:08:25.943Z,1001.96
2018-03-24T02:08:26.541Z,1001.99
2018-03-24T02:09:20.022Z,1001.96
2018-03-24T02:09:20.594Z,1001.95
2018-03-24T02:09:21.194Z,1002.00
2018-03-24T02:09:21.794Z,1002.00
2018-03-24T02:09:22.394Z,1001.97
2018-03-24T02:09:22.995Z,1002.00
2018-03-24T02:09:23.594Z,1001.99
2018-03-24T02:09:24.193Z,1002.01
2018-03-24T02:10:17.673Z,1002.03
2018-03-24T02:10:18.247Z,1002.00
2018-03-24T02:10:18.845Z,1001.98
2018-03-24T02:10:19.449Z,1001.99
2018-03-24T02:10:20.055Z,1001.99
2018-03-24T02:10:20.651Z,1002.04
2018-03-24T02:10:21.242Z,1001.98
2018-03-24T02:10:21.843Z,1001.99
2018-03-24T02:11:15.336Z,1001.96
2018-03-24T02:11:15.897Z,1001.98
2018-03-24T02:11:16.501Z,1001.97
2018-03-24T02:11:17.097Z,1001.96
2018-03-24T02:11:17.698Z,1001.96
2018-03-24T02:11:18.300Z,1001.96
2018-03-24T02:11:18.905Z,1001.98
2018-03-24T02:11:19.498Z,1001.99
2018-03-24T02:12:14.000Z,1001.95
2018-03-24T02:12:14.574Z,1002.00
2018-03-24T02:12:15.173Z,1001.97
2018-03-24T02:12:15.772Z,1001.94
2018-03-24T02:12:16.373Z,1001.97
2018-03-24T02:12:16.976Z,1001.97
2018-03-24T02:12:17.573Z,1001.99
2018-03-24T02:12:18.178Z,1001.95
2018-03-24T02:13:11.652Z,1002.01
2018-03-24T02:13:12.226Z,1001.97
2018-03-24T02:13:12.824Z,1001.94
2018-03-24T02:13:13.425Z,1001.97
2018-03-24T02:13:14.025Z,1001.98
2018-03-24T02:13:14.627Z,1001.99
2018-03-24T02:13:15.224Z,1001.97
2018-03-24T02:13:15.825Z,1001.95
2018-03-24T02:14:09.304Z,1001.95
2018-03-24T02:14:09.876Z,1001.96
2018-03-24T02:14:10.477Z,1001.97
2018-03-24T02:14:11.076Z,1001.96
2018-03-24T02:14:11.675Z,1001.97
2018-03-24T02:14:12.280Z,1001.98
2018-03-24T02:14:12.875Z,1001.94
2018-03-24T02:14:13.476Z,1001.97
2018-03-24T02:15:06.961Z,1001.97
2018-03-24T02:15:07.535Z,1001.98
2018-03-24T02:15:08.126Z,1001.99
2018-03-24T02:15:08.726Z,1001.98
2018-03-24T02:15:09.325Z,1001.96
2018-03-24T02:15:09.925Z,1001.99
2018-03-24T02:15:10.525Z,1002.00
2018-03-24T02:15:11.125Z,1001.98
2018-03-24T02:16:05.698Z,1001.97
2018-03-24T02:16:06.202Z,1001.97
2018-03-24T02:16:06.801Z,1002.00
2018-03-24T02:16:07.400Z,1001.98
2018-03-24T02:16:08.001Z,1001.97
2018-03-24T02:16:08.601Z,1001.98
2018-03-24T02:16:09.200Z,1001.98
2018-03-24T02:16:09.802Z,1001.98
2018-03-24T02:17:03.293Z,1001.95
2018-03-24T02:17:03.856Z,1001.96
2018-03-24T02:17:04.455Z,1002.01
2018-03-24T02:17:05.056Z,1001.94
2018-03-24T02:17:05.656Z,1001.96
2018-03-24T02:17:06.257Z,1001.98
2018-03-24T02:17:06.854Z,1002.00
2018-03-24T02:17:07.455Z,1001.96
2018-03-24T02:18:01.970Z,1001.97
2018-03-24T02:18:02.536Z,1001.97
2018-03-24T02:18:03.131Z,1001.99
2018-03-24T02:18:03.730Z,1001.97
2018-03-24T02:18:04.333Z,1001.97
2018-03-24T02:18:04.933Z,1001.93
2018-03-24T02:18:05.528Z,1001.96
2018-03-24T02:18:06.130Z,1001.99
2018-03-24T02:18:59.613Z,1001.94
2018-03-24T02:19:00.185Z,1001.95
2018-03-24T02:19:00.786Z,1001.91
2018-03-24T02:19:01.382Z,1001.98
2018-03-24T02:19:01.985Z,1001.97
2018-03-24T02:19:02.592Z,1001.99
2018-03-24T02:19:03.180Z,1001.95
2018-03-24T02:19:03.781Z,1001.97
2018-03-24T02:19:58.286Z,1001.97
2018-03-24T02:19:58.857Z,1001.95
2018-03-24T02:19:59.458Z,1001.97
2018-03-24T02:20:00.058Z,1001.99
2018-03-24T02:20:00.656Z,1001.95
2018-03-24T02:20:01.256Z,1001.96
2018-03-24T02:20:01.857Z,1001.95
2018-03-24T02:20:02.459Z,1001.97
2018-03-24T02:20:56.960Z,1001.93
2018-03-24T02:20:57.535Z,1001.92
2018-03-24T02:20:58.133Z,1001.95
2018-03-24T02:20:58.740Z,1001.97
2018-03-24T02:20:59.334Z,1001.97
2018-03-24T02:20:59.935Z,1001.92
2018-03-24T02:21:00.533Z,1001.96
2018-03-24T02:21:01.133Z,1001.95
2018-03-24T02:21:54.624Z,1001.95
2018-03-24T02:21:55.187Z,1001.98
2018-03-24T02:21:55.785Z,1001.97
2018-03-24T02:21:56.389Z,1001.97
2018-03-24T02:21:56.986Z,1001.97
2018-03-24T02:21:57.590Z,1001.94
2018-03-24T02:21:58.185Z,1001.92
2018-03-24T02:21:58.785Z,1001.96
2018-03-24T02:22:53.293Z,1001.96
2018-03-24T02:22:53.861Z,1001.95
2018-03-24T02:22:54.460Z,1001.95
2018-03-24T02:22:55.060Z,1001.97
2018-03-24T02:22:55.661Z,1001.97
2018-03-24T02:22:56.272Z,1001.98
2018-03-24T02:22:56.863Z,1001.94
2018-03-24T02:22:57.460Z,1001.94
2018-03-24T02:23:51.964Z,1001.95
2018-03-24T02:23:52.581Z,1001.93
2018-03-24T02:23:53.137Z,1001.94
2018-03-24T02:23:53.736Z,1001.95
2018-03-24T02:23:54.335Z,1001.92
2018-03-24T02:23:54.943Z,1001.96
2018-03-24T02:23:55.535Z,1001.93
2018-03-24T02:23:56.136Z,1001.93
2018-03-24T02:24:49.622Z,1001.96
2018-03-24T02:24:50.189Z,1001.93
2018-03-24T02:24:50.805Z,1001.93
2018-03-24T02:24:51.395Z,1001.96
2018-03-24T02:24:51.986Z,1001.94
2018-03-24T02:24:52.590Z,1001.95
2018-03-24T02:24:53.188Z,1001.95
2018-03-24T02:24:53.786Z,1001.98
2018-03-24T02:25:48.290Z,1001.92
2018-03-24T02:25:48.865Z,1001.93
2018-03-24T02:25:49.464Z,1001.93
2018-03-24T02:25:50.063Z,1001.93
2018-03-24T02:25:50.664Z,1001.93
2018-03-24T02:25:51.268Z,1001.96
2018-03-24T02:25:51.863Z,1001.95
2018-03-24T02:25:52.463Z,1001.92
2018-03-24T02:26:45.948Z,1001.92
2018-03-24T02:26:46.516Z,1001.94
2018-03-24T02:26:47.117Z,1001.92
2018-03-24T02:26:47.718Z,1001.92
2018-03-24T02:26:48.316Z,1001.93
2018-03-24T02:26:48.917Z,1001.94
2018-03-24T02:26:49.516Z,1001.92
2018-03-24T02:26:50.116Z,1001.93
2018-03-24T02:27:44.623Z,1001.92
2018-03-24T02:27:45.198Z,1001.94
2018-03-24T02:27:45.791Z,1001.92
2018-03-24T02:27:46.392Z,1001.93
2018-03-24T02:27:46.991Z,1001.92
2018-03-24T02:27:47.598Z,1001.89
2018-03-24T02:27:48.191Z,1001.91
2018-03-24T02:27:48.791Z,1001.93
2018-03-24T02:28:42.270Z,1001.95
2018-03-24T02:28:42.844Z,1001.90
2018-03-24T02:28:43.442Z,1001.95
2018-03-24T02:28:44.044Z,1001.95
2018-03-24T02:28:44.643Z,1001.94
2018-03-24T02:28:45.245Z,1001.92
2018-03-24T02:28:45.842Z,1001.92
2018-03-24T02:28:46.443Z,1001.94
2018-03-24T02:29:39.923Z,1001.93
2018-03-24T02:29:40.495Z,1001.93
2018-03-24T02:29:41.095Z,1001.95
2018-03-24T02:29:41.697Z,1001.95
2018-03-24T02:29:42.295Z,1001.94
2018-03-24T02:29:42.896Z,1001.93
2018-03-24T02:29:43.495Z,1001.95
2018-03-24T02:29:44.095Z,1001.96
2018-03-24T02:30:37.593Z,1001.92
2018-03-24T02:30:38.147Z,1001.93
2018-03-24T02:30:38.751Z,1001.91
2018-03-24T02:30:39.347Z,1001.93
2018-03-24T02:30:39.949Z,1001.93
2018-03-24T02:30:40.552Z,1001.95
2018-03-24T02:30:41.146Z,1001.94
2018-03-24T02:30:41.747Z,1001.91
2018-03-24T02:31:35.231Z,1001.94
2018-03-24T02:31:35.802Z,1001.93
2018-03-24T02:31:36.401Z,1001.92
2018-03-24T02:31:37.000Z,1001.93
2018-03-24T02:31:37.599Z,1001.91
2018-03-24T02:31:38.199Z,1001.96
2018-03-24T02:31:38.799Z,1001.94
2018-03-24T02:31:39.398Z,1001.91
2018-03-24T02:32:32.883Z,1001.92
2018-03-24T02:32:33.467Z,1001.95
2018-03-24T02:32:34.054Z,1001.94
2018-03-24T02:32:34.651Z,1001.95
2018-03-24T02:32:35.251Z,1001.93
2018-03-24T02:32:35.851Z,1001.97
2018-03-24T02:32:36.448Z,1001.94
2018-03-24T02:32:37.048Z,1001.89
2018-03-24T02:33:30.529Z,1001.92
2018-03-24T02:33:31.104Z,1001.94
2018-03-24T02:33:31.702Z,1001.94
2018-03-24T02:33:32.307Z,1001.95
2018-03-24T02:33:32.904Z,1001.94
2018-03-24T02:33:33.507Z,1001.94
2018-03-24T02:33:34.101Z,1001.93
2018-03-24T02:33:34.703Z,1001.94
2018-03-24T02:34:28.186Z,1001.94
2018-03-24T02:34:28.754Z,1001.96
2018-03-24T02:34:29.355Z,1001.92
2018-03-24T02:34:29.954Z,1001.91
2018-03-24T02:34:30.553Z,1001.90
2018-03-24T02:34:31.156Z,1001.93
2018-03-24T02:34:31.755Z,1001.94
2018-03-24T02:34:32.354Z,1001.93
2018-03-24T02:35:25.837Z,1001.89
2018-03-24T02:35:26.408Z,1001.92
2018-03-24T02:35:27.007Z,1001.92
2018-03-24T02:35:27.607Z,1001.94
2018-03-24T02:35:28.204Z,1001.92
2018-03-24T02:35:28.809Z,1001.92
2018-03-24T02:35:29.405Z,1001.94
2018-03-24T02:35:30.008Z,1001.96
2018-03-24T02:36:24.513Z,1001.92
2018-03-24T02:36:25.082Z,1001.92
2018-03-24T02:36:25.692Z,1001.92
2018-03-24T02:36:26.277Z,1001.92
2018-03-24T02:36:26.879Z,1001.98
2018-03-24T02:36:27.479Z,1001.95
2018-03-24T02:36:28.077Z,1001.94
2018-03-24T02:36:28.678Z,1001.90
2018-03-24T02:37:23.186Z,1001.92
2018-03-24T02:37:23.759Z,1001.96
2018-03-24T02:37:24.354Z,1001.95
2018-03-24T02:37:24.954Z,1001.90
2018-03-24T02:37:25.553Z,1001.93
2018-03-24T02:37:26.152Z,1001.91
2018-03-24T02:37:26.754Z,1001.92
2018-03-24T02:37:27.353Z,1001.93
2018-03-24T02:38:20.841Z,1001.94
2018-03-24T02:38:21.409Z,1001.95
2018-03-24T02:38:22.009Z,1001.96
2018-03-24T02:38:22.608Z,1001.96
2018-03-24T02:38:23.210Z,1001.94
2018-03-24T02:38:23.813Z,1001.92
2018-03-24T02:38:24.408Z,1001.96
2018-03-24T02:38:25.008Z,1001.97
2018-03-24T02:56:24.201Z,1001.97
2018-03-24T02:56:24.706Z,1001.96
2018-03-24T02:56:25.304Z,1001.96
2018-03-24T02:56:25.903Z,1001.94
2018-03-24T02:56:26.505Z,1001.97
2018-03-24T02:56:27.110Z,1001.94
2018-03-24T02:56:27.705Z,1001.96
2018-03-24T02:56:28.305Z,1001.98
2018-03-24T02:57:22.804Z,1001.97
2018-03-24T02:57:23.378Z,1001.99
2018-03-24T02:57:23.978Z,1001.95
2018-03-24T02:57:24.579Z,1001.96
2018-03-24T02:57:25.178Z,1001.93
2018-03-24T02:57:25.777Z,1001.95
2018-03-24T02:57:26.382Z,1001.95
2018-03-24T02:57:26.978Z,1001.93
2018-03-24T02:58:21.515Z,1001.95
2018-03-24T02:58:22.059Z,1001.97
2018-03-24T02:58:22.654Z,1001.96
2018-03-24T02:58:23.257Z,1001.94
2018-03-24T02:58:23.856Z,1001.93
2018-03-24T02:58:24.452Z,1001.94
2018-03-24T02:58:25.051Z,1001.97
2018-03-24T02:58:25.652Z,1001.98
2018-03-24T02:59:19.143Z,1001.96
2018-03-24T02:59:19.708Z,1001.98
2018-03-24T02:59:20.308Z,1001.93
2018-03-24T02:59:20.908Z,1001.92
2018-03-24T02:59:21.507Z,1001.95
2018-03-24T02:59:22.111Z,1001.90
2018-03-24T02:59:22.706Z,1001.95
2018-03-24T02:59:23.307Z,1001.93
2018-03-24T03:00:17.814Z,1001.98
2018-03-24T03:00:18.381Z,1001.94
2018-03-24T03:00:18.983Z,1001.94
2018-03-24T03:00:19.582Z,1001.94
2018-03-24T03:00:20.182Z,1001.96
2018-03-24T03:00:20.781Z,1001.94
2018-03-24T03:00:21.382Z,1001.97
2018-03-24T03:00:21.987Z,1001.93
2018-03-24T03:01:15.479Z,1001.93
2018-03-24T03:01:16.036Z,1001.91
2018-03-24T03:01:16.640Z,1001.94
2018-03-24T03:01:17.234Z,1001.91
2018-03-24T03:01:17.835Z,1001.92
2018-03-24T03:01:18.437Z,1001.93
2018-03-24T03:01:19.038Z,1001.92
2018-03-24T03:01:19.634Z,1001.95
2018-03-24T03:02:14.138Z,1001.88
2018-03-24T03:02:14.711Z,1001.88
2018-03-24T03:02:15.310Z,1001.93
2018-03-24T03:02:15.911Z,1001.89
2018-03-24T03:02:16.516Z,1001.89
2018-03-24T03:02:17.111Z,1001.94
2018-03-24T03:02:17.709Z,1001.91
2018-03-24T03:02:18.310Z,1001.88
2018-03-24T03:03:11.795Z,1001.88
2018-03-24T03:03:12.362Z,1001.86
2018-03-24T03:03:12.968Z,1001.91
2018-03-24T03:03:13.564Z,1001.88
2018-03-24T03:03:14.160Z,1001.89
2018-03-24T03:03:14.762Z,1001.89
2018-03-24T03:03:15.367Z,1001.92
2018-03-24T03:03:15.961Z,1001.90
2018-03-24T03:04:10.466Z,1001.86
2018-03-24T03:04:11.038Z,1001.90
2018-03-24T03:04:11.637Z,1001.88
2018-03-24T03:04:12.238Z,1001.84
2018-03-24T03:04:12.837Z,1001.87
2018-03-24T03:04:13.442Z,1001.90
2018-03-24T03:04:14.038Z,1001.86
2018-03-24T03:04:14.638Z,1001.86
2018-03-24T03:05:08.125Z,1001.91
2018-03-24T03:05:08.690Z,1001.92
2018-03-24T03:05:09.291Z,1001.87
2018-03-24T03:05:09.892Z,1001.91
2018-03-24T03:05:10.490Z,1001.88
2018-03-24T03:05:11.094Z,1001.89
2018-03-24T03:05:11.695Z,1001.90
2018-03-24T03:05:12.292Z,1001.90
2018-03-24T03:06:05.771Z,1001.88
2018-03-24T03:06:06.345Z,1001.86
2018-03-24T03:06:06.944Z,1001.87
2018-03-24T03:06:07.544Z,1001.89
2018-03-24T03:06:08.142Z,1001.87
2018-03-24T03:06:08.750Z,1001.89
2018-03-24T03:06:09.347Z,1001.90
2018-03-24T03:06:09.944Z,1001.91
2018-03-24T03:07:03.422Z,1001.89
2018-03-24T03:07:04.005Z,1001.87
2018-03-24T03:07:04.594Z,1001.86
2018-03-24T03:07:05.199Z,1001.88
2018-03-24T03:07:05.794Z,1001.85
2018-03-24T03:07:06.402Z,1001.88
2018-03-24T03:07:06.994Z,1001.91
2018-03-24T03:07:07.592Z,1001.91
2018-03-24T03:08:02.099Z,1001.90
2018-03-24T03:08:02.673Z,1001.87
2018-03-24T03:08:03.268Z,1001.90
2018-03-24T03:08:03.870Z,1001.88
2018-03-24T03:08:04.472Z,1001.92
2018-03-24T03:08:05.069Z,1001.85
2018-03-24T03:08:05.668Z,1001.87
2018-03-24T03:08:06.269Z,1001.89
2018-03-24T03:09:00.267Z,1001.89
2018-03-24T03:09:00.832Z,1001.90
2018-03-24T03:09:01.439Z,1001.92
2018-03-24T03:09:02.032Z,1001.90
2018-03-24T03:09:02.630Z,1001.87
2018-03-24T03:09:03.250Z,1001.89
2018-03-24T03:09:03.830Z,1001.85
2018-03-24T03:09:58.322Z,1001.88
2018-03-24T03:09:58.892Z,1001.92
2018-03-24T03:09:59.492Z,1001.86
2018-03-24T03:10:00.094Z,1001.89
2018-03-24T03:10:00.692Z,1001.88
2018-03-24T03:10:01.292Z,1001.89
2018-03-24T03:10:01.892Z,1001.91
2018-03-24T03:10:02.491Z,1001.89
2018-03-24T03:10:56.999Z,1001.89
2018-03-24T03:10:57.570Z,1001.84
2018-03-24T03:10:58.172Z,1001.87
2018-03-24T03:10:58.771Z,1001.88
2018-03-24T03:10:59.367Z,1001.91
2018-03-24T03:10:59.967Z,1001.88
2018-03-24T03:11:00.568Z,1001.90
2018-03-24T03:11:01.168Z,1001.88
2018-03-24T03:11:54.650Z,1001.90
2018-03-24T03:11:55.224Z,1001.88
2018-03-24T03:11:55.823Z,1001.92
2018-03-24T03:11:56.422Z,1001.87
2018-03-24T03:11:57.027Z,1001.82
2018-03-24T03:11:57.626Z,1001.85
2018-03-24T03:11:58.221Z,1001.88
2018-03-24T03:11:58.822Z,1001.86
2018-03-24T03:12:53.325Z,1001.89
2018-03-24T03:12:53.898Z,1001.87
2018-03-24T03:12:54.497Z,1001.86
2018-03-24T03:12:55.097Z,1001.89
2018-03-24T03:12:55.697Z,1001.87
2018-03-24T03:12:56.299Z,1001.89
2018-03-24T03:12:56.897Z,1001.89
2018-03-24T03:12:57.496Z,1001.89
2018-03-24T03:13:50.987Z,1001.85
2018-03-24T03:13:51.550Z,1001.84
2018-03-24T03:13:52.149Z,1001.88
2018-03-24T03:13:52.755Z,1001.91
2018-03-24T03:13:53.349Z,1001.88
2018-03-24T03:13:53.955Z,1001.89
2018-03-24T03:13:54.549Z,1001.88
2018-03-24T03:13:55.148Z,1001.88
2018-03-24T03:14:48.634Z,1001.88
2018-03-24T03:14:49.203Z,1001.91
2018-03-24T03:14:49.802Z,1001.90
2018-03-24T03:14:50.401Z,1001.88
2018-03-24T03:14:51.002Z,1001.87
2018-03-24T03:14:51.604Z,1001.89
2018-03-24T03:14:52.200Z,1001.86
2018-03-24T03:14:52.801Z,1001.85
2018-03-24T03:15:46.294Z,1001.87
2018-03-24T03:15:46.852Z,1001.83
2018-03-24T03:15:47.452Z,1001.86
2018-03-24T03:15:48.053Z,1001.89
2018-03-24T03:15:48.652Z,1001.90
2018-03-24T03:15:49.256Z,1001.89
2018-03-24T03:15:49.852Z,1001.89
2018-03-24T03:15:50.453Z,1001.92
2018-03-24T03:16:43.931Z,1001.89
2018-03-24T03:16:44.510Z,1001.91
2018-03-24T03:16:45.105Z,1001.90
2018-03-24T03:16:45.706Z,1001.90
2018-03-24T03:16:46.304Z,1001.92
2018-03-24T03:16:46.904Z,1001.90
2018-03-24T03:16:47.504Z,1001.88
2018-03-24T03:16:48.104Z,1001.93
2018-03-24T03:17:42.609Z,1001.90
2018-03-24T03:17:43.180Z,1001.92
2018-03-24T03:17:43.780Z,1001.93
2018-03-24T03:17:44.378Z,1001.94
2018-03-24T03:17:44.979Z,1001.95
2018-03-24T03:17:45.580Z,1001.94
2018-03-24T03:17:46.180Z,1001.95
2018-03-24T03:17:46.783Z,1001.96
2018-03-24T03:18:41.283Z,1001.90
2018-03-24T03:18:41.854Z,1001.89
2018-03-24T03:18:42.454Z,1001.88
2018-03-24T03:18:43.055Z,1001.87
2018-03-24T03:18:43.659Z,1001.90
2018-03-24T03:18:44.253Z,1001.92
2018-03-24T03:18:44.856Z,1001.92
2018-03-24T03:18:45.452Z,1001.93
2018-03-24T03:19:38.941Z,1001.89
2018-03-24T03:19:39.510Z,1001.93
2018-03-24T03:19:40.109Z,1001.91
2018-03-24T03:19:40.709Z,1001.90
2018-03-24T03:19:41.308Z,1001.95
2018-03-24T03:19:41.908Z,1001.90
2018-03-24T03:19:42.507Z,1001.90
2018-03-24T03:19:43.108Z,1001.95
2018-03-24T03:20:36.588Z,1001.88
2018-03-24T03:20:37.160Z,1001.90
2018-03-24T03:20:37.759Z,1001.91
2018-03-24T03:20:38.358Z,1001.91
2018-03-24T03:20:38.965Z,1001.92
2018-03-24T03:20:39.574Z,1001.87
2018-03-24T03:20:40.158Z,1001.92
2018-03-24T03:20:40.758Z,1001.91
2018-03-24T03:21:35.262Z,1001.92
2018-03-24T03:21:35.834Z,1001.88
2018-03-24T03:21:36.435Z,1001.94
2018-03-24T03:21:37.035Z,1001.91
2018-03-24T03:21:37.634Z,1001.87
2018-03-24T03:21:38.233Z,1001.89
2018-03-24T03:21:38.834Z,1001.91
2018-03-24T03:21:39.449Z,1001.93
2018-03-24T03:22:33.938Z,1001.88
2018-03-24T03:22:34.509Z,1001.88
2018-03-24T03:22:35.110Z,1001.89
2018-03-24T03:22:35.739Z,1001.89
2018-03-24T03:22:36.309Z,1001.90
2018-03-24T03:22:36.917Z,1001.90
2018-03-24T03:22:37.509Z,1001.90
2018-03-24T03:22:38.109Z,1001.88
2018-03-24T03:23:31.595Z,1001.88
2018-03-24T03:23:32.164Z,1001.93
2018-03-24T03:23:32.765Z,1001.88
2018-03-24T03:23:33.361Z,1001.89
2018-03-24T03:23:33.960Z,1001.90
2018-03-24T03:23:34.561Z,1001.92
2018-03-24T03:23:35.160Z,1001.88
2018-03-24T03:23:35.760Z,1001.94
2018-03-24T03:24:29.241Z,1001.92
2018-03-24T03:24:29.813Z,1001.93
2018-03-24T03:24:30.413Z,1001.97
2018-03-24T03:24:31.015Z,1001.97
2018-03-24T03:24:31.614Z,1001.93
2018-03-24T03:24:32.215Z,1001.96
2018-03-24T03:24:32.814Z,1001.91
2018-03-24T03:24:33.413Z,1001.95
2018-03-24T03:25:26.902Z,1001.93
2018-03-24T03:25:27.465Z,1001.92
2018-03-24T03:25:28.066Z,1001.93
2018-03-24T03:25:28.668Z,1001.92
2018-03-24T03:25:29.264Z,1001.94
2018-03-24T03:25:29.870Z,1001.91
2018-03-24T03:25:30.462Z,1001.92
2018-03-24T03:25:31.066Z,1001.90
2018-03-24T03:26:25.568Z,1001.95
2018-03-24T03:26:26.142Z,1001.93
2018-03-24T03:26:26.741Z,1001.95
2018-03-24T03:26:27.341Z,1001.93
2018-03-24T03:26:27.942Z,1001.94
2018-03-24T03:26:28.546Z,1001.93
2018-03-24T03:26:29.141Z,1001.91
2018-03-24T03:26:29.742Z,1001.94
2018-03-24T03:27:24.249Z,1001.94
2018-03-24T03:27:24.815Z,1001.91
2018-03-24T03:27:25.415Z,1001.94
2018-03-24T03:27:26.016Z,1001.96
2018-03-24T03:27:26.616Z,1001.97
2018-03-24T03:27:27.220Z,1001.93
2018-03-24T03:27:27.817Z,1001.95
2018-03-24T03:27:28.416Z,1001.91